Aviation Digital Data Service (ADDS)

Output produced by METARs form (2310 UTC 15 August 2018)
found at http://www.aviationweather.gov/adds/metars/
 
VDSR 152300Z 23004KT 9000 SCT015 SCT040 25/24 Q1004
TAF VDSR 151700Z 1518/1612 22007KT 9999 SCT017 SCT040 
     TEMPO 1519/1523 SCT015 FEW017CB
       
VDSV 152300Z 06002KT 9000 SCT017 SCT040 25/24 Q1007
TAF VDSV 151700Z 1518/1612 27008KT 9999 SCT017 SCT040 
     TEMPO 1519/1523 SCT015 FEW017CB